Time;durP1;ratioP1;P1;durP2;ratioP2;P2;SDS_P1;SDS_P2;PMS_P1;PMS_P2;Temp;Humidity;BMP_temperature;BMP_pressure;BME280_temperature;BME280_humidity;BME280_pressure;Samples;Min_cycle;Max_cycle;Signal;HPM_P1;HPM_P2
2023/03/11 00:01:06;;;;;;;1.45;0.40;;;;;;;;;;6186407;23;20359;-77
2023/03/11 00:03:32;;;;;;;0.93;0.80;;;;;;;;;;6186287;23;20040;-77
2023/03/11 00:06:00;;;;;;;0.82;0.28;;;;;;;;;;6186774;23;20297;-77
2023/03/11 00:08:27;;;;;;;3.22;0.50;;;;;;;;;;6186330;23;19997;-77
2023/03/11 00:10:59;;;;;;;0.82;0.32;;;;;;;;;;6186569;23;19997;-77
2023/03/11 00:13:25;;;;;;;1.40;0.25;;;;;;;;;;6186631;23;20005;-77
2023/03/11 00:15:54;;;;;;;1.65;0.73;;;;;;;;;;6186370;23;20028;-77
2023/03/11 00:18:24;;;;;;;0.38;0.13;;;;;;;;;;6186709;23;20029;-77
2023/03/11 00:20:50;;;;;;;1.45;0.80;;;;;;;;;;6186698;23;20001;-76
2023/03/11 00:23:16;;;;;;;0.57;0.20;;;;;;;;;;6186126;23;20008;-77
2023/03/11 00:25:43;;;;;;;0.10;0.10;;;;;;;;;;6186257;23;20001;-77
2023/03/11 00:28:10;;;;;;;2.45;0.38;;;;;;;;;;6186142;23;20001;-77
2023/03/11 00:30:36;;;;;;;0.43;0.28;;;;;;;;;;6186722;23;20008;-77
2023/03/11 00:33:02;;;;;;;0.52;0.10;;;;;;;;;;6185754;23;20024;-76
2023/03/11 00:35:31;;;;;;;0.15;0.15;;;;;;;;;;6186388;23;20025;-76
2023/03/11 00:38:06;;;;;;;0.73;0.22;;;;;;;;;;6185915;23;20004;-76
2023/03/11 00:40:33;;;;;;;0.52;0.30;;;;;;;;;;6185963;23;20160;-77
2023/03/11 00:42:59;;;;;;;4.82;0.50;;;;;;;;;;6185876;23;20009;-77
2023/03/11 00:45:25;;;;;;;1.17;0.43;;;;;;;;;;6185926;23;20083;-76
2023/03/11 00:47:52;;;;;;;0.17;0.17;;;;;;;;;;6185730;23;20012;-76
2023/03/11 00:50:19;;;;;;;9.38;1.30;;;;;;;;;;6185794;23;20328;-77
2023/03/11 00:52:46;;;;;;;0.45;0.40;;;;;;;;;;6159451;23;20009;-76
2023/03/11 00:55:13;;;;;;;0.73;0.22;;;;;;;;;;6185720;23;20017;-76
2023/03/11 00:57:41;;;;;;;1.20;0.30;;;;;;;;;;6185640;23;20075;-76
2023/03/11 01:00:10;;;;;;;1.25;0.30;;;;;;;;;;6185937;23;20072;-76
2023/03/11 01:02:37;;;;;;;2.03;0.30;;;;;;;;;;6186083;23;20019;-76
2023/03/11 01:05:03;;;;;;;1.63;0.57;;;;;;;;;;6185693;23;20102;-76
2023/03/11 01:07:29;;;;;;;2.42;0.10;;;;;;;;;;6185810;23;19997;-77
2023/03/11 01:09:55;;;;;;;0.30;0.30;;;;;;;;;;6185750;23;19993;-77
2023/03/11 01:12:21;;;;;;;1.85;0.40;;;;;;;;;;6185329;23;20413;-76
2023/03/11 01:14:47;;;;;;;1.10;0.30;;;;;;;;;;6185685;23;20001;-76
2023/03/11 01:17:13;;;;;;;2.42;0.47;;;;;;;;;;6185539;23;20048;-76
2023/03/11 01:19:45;;;;;;;4.65;0.35;;;;;;;;;;6185629;23;20076;-76
2023/03/11 01:22:12;;;;;;;2.00;0.50;;;;;;;;;;6185774;23;20083;-77
2023/03/11 01:24:38;;;;;;;3.85;0.38;;;;;;;;;;6185506;23;20574;-76
2023/03/11 01:27:04;;;;;;;0.93;0.40;;;;;;;;;;6185813;23;20704;-77
2023/03/11 01:29:30;;;;;;;4.53;0.50;;;;;;;;;;6185742;23;20077;-76
2023/03/11 01:31:58;;;;;;;1.23;0.30;;;;;;;;;;6185649;23;20001;-77
2023/03/11 01:34:24;;;;;;;0.65;0.55;;;;;;;;;;6185771;23;20001;-76
2023/03/11 01:36:50;;;;;;;1.85;0.38;;;;;;;;;;6185685;23;20001;-77
2023/03/11 01:39:16;;;;;;;0.75;0.22;;;;;;;;;;6185554;23;19997;-77
2023/03/11 01:41:42;;;;;;;0.70;0.30;;;;;;;;;;6185670;23;20076;-77
2023/03/11 01:44:10;;;;;;;4.05;0.40;;;;;;;;;;6185627;23;20009;-76
2023/03/11 01:46:58;;;;;;;2.92;0.40;;;;;;;;;;6185607;23;20324;-76
2023/03/11 01:49:25;;;;;;;2.10;0.47;;;;;;;;;;6185850;23;20012;-77
2023/03/11 01:51:56;;;;;;;0.77;0.35;;;;;;;;;;6185675;23;20001;-77
2023/03/11 01:54:25;;;;;;;2.03;0.40;;;;;;;;;;6185653;23;20008;-77
2023/03/11 01:56:52;;;;;;;1.85;0.50;;;;;;;;;;6185542;23;19997;-77
2023/03/11 01:59:20;;;;;;;0.20;0.15;;;;;;;;;;6185184;23;20013;-76
2023/03/11 02:01:51;;;;;;;0.43;0.22;;;;;;;;;;6185587;23;20031;-76
2023/03/11 02:04:29;;;;;;;1.13;0.50;;;;;;;;;;6185570;23;20413;-76
2023/03/11 02:07:04;;;;;;;3.67;0.52;;;;;;;;;;6185810;23;20400;-77
2023/03/11 02:09:30;;;;;;;1.63;0.43;;;;;;;;;;6185803;23;20547;-77
2023/03/11 02:11:57;;;;;;;0.40;0.30;;;;;;;;;;6185536;23;20025;-77
2023/03/11 02:14:23;;;;;;;2.30;0.30;;;;;;;;;;6185429;23;20001;-77
2023/03/11 02:16:49;;;;;;;1.70;0.20;;;;;;;;;;6185742;23;19997;-77
2023/03/11 02:19:20;;;;;;;0.40;0.20;;;;;;;;;;6185610;23;20420;-77
2023/03/11 02:21:46;;;;;;;0.75;0.45;;;;;;;;;;6185577;23;20039;-77
2023/03/11 02:24:19;;;;;;;1.90;0.45;;;;;;;;;;6186682;23;20620;-77
2023/03/11 02:26:53;;;;;;;1.77;0.20;;;;;;;;;;6187420;23;19993;-77
2023/03/11 02:29:20;;;;;;;1.48;0.40;;;;;;;;;;6187570;23;19997;-77
2023/03/11 02:31:47;;;;;;;0.52;0.30;;;;;;;;;;6187554;23;20004;-77
2023/03/11 02:34:18;;;;;;;1.85;0.47;;;;;;;;;;6187409;23;19997;-77
2023/03/11 02:36:44;;;;;;;2.38;0.10;;;;;;;;;;6188990;23;20009;-78
2023/03/11 02:39:10;;;;;;;0.90;0.55;;;;;;;;;;6190530;23;20072;-78
2023/03/11 02:41:38;;;;;;;2.50;0.55;;;;;;;;;;6190196;23;19997;-78
2023/03/11 02:44:06;;;;;;;3.63;0.43;;;;;;;;;;6190014;23;20055;-78
2023/03/11 02:46:32;;;;;;;2.47;0.52;;;;;;;;;;6189987;23;20001;-78
2023/03/11 02:49:04;;;;;;;0.43;0.30;;;;;;;;;;6189601;23;20326;-78
2023/03/11 02:51:37;;;;;;;1.65;0.50;;;;;;;;;;6189860;23;20024;-78
2023/03/11 02:54:04;;;;;;;1.75;0.30;;;;;;;;;;6190204;23;20072;-78
2023/03/11 02:56:30;;;;;;;1.40;0.32;;;;;;;;;;6189737;23;20493;-78
2023/03/11 02:58:56;;;;;;;0.45;0.20;;;;;;;;;;6190146;23;20092;-78
2023/03/11 03:01:22;;;;;;;2.15;0.45;;;;;;;;;;6189750;23;20061;-78
2023/03/11 03:03:48;;;;;;;0.98;0.30;;;;;;;;;;6190223;23;20392;-78
2023/03/11 03:06:14;;;;;;;5.28;0.70;;;;;;;;;;6190267;23;20420;-78
2023/03/11 03:08:40;;;;;;;3.17;0.40;;;;;;;;;;6191143;23;20028;-78
2023/03/11 03:11:06;;;;;;;0.82;0.30;;;;;;;;;;6190532;23;19997;-78
2023/03/11 03:13:32;;;;;;;3.55;0.30;;;;;;;;;;6190385;23;20080;-78
2023/03/11 03:15:59;;;;;;;5.80;0.60;;;;;;;;;;6190432;23;20051;-78
2023/03/11 03:18:25;;;;;;;2.92;0.50;;;;;;;;;;6190234;23;20412;-78
2023/03/11 03:20:52;;;;;;;2.20;0.50;;;;;;;;;;6190531;23;20001;-78
2023/03/11 03:23:18;;;;;;;1.83;0.30;;;;;;;;;;6189895;23;20087;-78
2023/03/11 03:25:44;;;;;;;2.97;0.30;;;;;;;;;;6163542;23;19997;-78
2023/03/11 03:28:11;;;;;;;1.08;0.47;;;;;;;;;;6190970;23;19999;-78
2023/03/11 03:30:41;;;;;;;2.92;0.30;;;;;;;;;;6191165;23;20374;-78
2023/03/11 03:33:07;;;;;;;0.65;0.15;;;;;;;;;;6189915;23;19997;-78
2023/03/11 03:35:33;;;;;;;1.65;0.30;;;;;;;;;;6189775;23;20008;-78
2023/03/11 03:38:00;;;;;;;1.30;0.43;;;;;;;;;;6190239;23;20028;-78
2023/03/11 03:40:26;;;;;;;0.80;0.50;;;;;;;;;;6191547;23;20076;-78
2023/03/11 03:42:52;;;;;;;1.98;0.25;;;;;;;;;;6192311;23;20084;-78
2023/03/11 03:45:19;;;;;;;2.90;0.35;;;;;;;;;;6191682;23;20064;-78
2023/03/11 03:47:45;;;;;;;1.63;0.30;;;;;;;;;;6190722;23;20002;-78
2023/03/11 03:50:11;;;;;;;4.80;0.73;;;;;;;;;;6190647;23;20047;-78
2023/03/11 03:52:37;;;;;;;4.78;0.45;;;;;;;;;;6190631;23;19997;-78
2023/03/11 03:55:04;;;;;;;1.13;0.35;;;;;;;;;;6190912;23;19997;-78
2023/03/11 03:57:30;;;;;;;3.80;0.45;;;;;;;;;;6190950;23;20013;-78
2023/03/11 03:59:56;;;;;;;1.05;0.32;;;;;;;;;;6191399;23;20001;-78
2023/03/11 04:02:22;;;;;;;1.65;0.32;;;;;;;;;;6191396;23;20064;-78
2023/03/11 04:04:48;;;;;;;3.83;0.40;;;;;;;;;;6191809;23;20001;-78
2023/03/11 04:07:14;;;;;;;2.28;0.50;;;;;;;;;;6192311;23;19997;-78
2023/03/11 04:09:40;;;;;;;1.05;0.20;;;;;;;;;;6192010;23;20016;-78
2023/03/11 04:12:07;;;;;;;2.20;0.38;;;;;;;;;;6192211;23;19997;-78
2023/03/11 04:14:43;;;;;;;3.35;0.45;;;;;;;;;;6191597;23;20005;-78
2023/03/11 04:17:16;;;;;;;1.20;0.50;;;;;;;;;;6192044;23;20052;-78
2023/03/11 04:19:42;;;;;;;0.25;0.20;;;;;;;;;;6193138;23;20293;-78
2023/03/11 04:22:08;;;;;;;0.75;0.25;;;;;;;;;;6191914;23;20427;-78
2023/03/11 04:24:34;;;;;;;1.58;0.30;;;;;;;;;;6191898;23;20008;-78
2023/03/11 04:27:00;;;;;;;1.83;0.50;;;;;;;;;;6193243;23;20046;-78
2023/03/11 04:29:26;;;;;;;3.60;0.50;;;;;;;;;;6193401;23;20001;-78
2023/03/11 04:31:52;;;;;;;1.40;0.60;;;;;;;;;;6192537;23;20005;-78
2023/03/11 04:34:18;;;;;;;8.35;0.55;;;;;;;;;;6191199;23;20320;-78
2023/03/11 04:36:44;;;;;;;2.05;0.38;;;;;;;;;;6192064;23;19997;-78
2023/03/11 04:39:10;;;;;;;5.38;0.50;;;;;;;;;;6192855;23;20007;-78
2023/03/11 04:41:37;;;;;;;3.55;0.50;;;;;;;;;;6193588;23;19997;-78
2023/03/11 04:44:02;;;;;;;1.90;0.40;;;;;;;;;;6193496;23;20067;-78
2023/03/11 04:46:28;;;;;;;0.70;0.30;;;;;;;;;;6192989;23;20001;-78
2023/03/11 04:48:54;;;;;;;3.30;0.52;;;;;;;;;;6193022;23;20079;-78
2023/03/11 04:51:20;;;;;;;3.72;0.40;;;;;;;;;;6193414;23;20072;-78
2023/03/11 04:53:46;;;;;;;2.45;0.45;;;;;;;;;;6193630;23;20371;-78
2023/03/11 04:56:12;;;;;;;3.25;0.50;;;;;;;;;;6193044;23;20005;-78
2023/03/11 04:58:45;;;;;;;2.15;0.50;;;;;;;;;;6193380;23;20040;-78
2023/03/11 05:01:12;;;;;;;2.70;0.30;;;;;;;;;;6194538;23;20005;-78
2023/03/11 05:03:39;;;;;;;1.50;0.47;;;;;;;;;;6194218;23;20442;-78
2023/03/11 05:06:05;;;;;;;3.30;0.30;;;;;;;;;;6193972;23;19997;-78
2023/03/11 05:08:31;;;;;;;1.48;0.40;;;;;;;;;;6193728;23;19997;-78
2023/03/11 05:10:57;;;;;;;0.73;0.70;;;;;;;;;;6194604;23;20008;-78
2023/03/11 05:13:23;;;;;;;1.92;1.10;;;;;;;;;;6194516;23;20001;-78
2023/03/11 05:15:49;;;;;;;3.40;0.70;;;;;;;;;;6193210;23;20320;-78
2023/03/11 05:18:15;;;;;;;1.17;0.30;;;;;;;;;;6165742;23;20039;-78
2023/03/11 05:20:41;;;;;;;1.45;0.35;;;;;;;;;;6193542;23;20020;-78
2023/03/11 05:23:07;;;;;;;5.13;0.68;;;;;;;;;;6192680;23;20012;-78
2023/03/11 05:25:34;;;;;;;4.40;0.52;;;;;;;;;;6192908;23;20451;-78
2023/03/11 05:28:00;;;;;;;2.22;0.40;;;;;;;;;;6167105;23;20028;-78
2023/03/11 05:30:26;;;;;;;2.97;0.70;;;;;;;;;;6193893;23;19994;-78
2023/03/11 05:32:52;;;;;;;2.83;0.70;;;;;;;;;;6191461;23;20024;-78
2023/03/11 05:35:19;;;;;;;2.20;0.70;;;;;;;;;;6190945;23;20597;-78
2023/03/11 05:37:48;;;;;;;1.75;0.75;;;;;;;;;;6192118;23;20300;-78
2023/03/11 05:40:14;;;;;;;1.85;0.50;;;;;;;;;;6192080;23;20001;-78
2023/03/11 05:43:14;;;;;;;1.92;0.50;;;;;;;;;;6191642;23;19997;-78
2023/03/11 05:45:41;;;;;;;1.42;0.52;;;;;;;;;;6190663;23;20053;-78
2023/03/11 05:48:07;;;;;;;2.65;0.55;;;;;;;;;;6190331;23;20008;-78
2023/03/11 05:50:33;;;;;;;2.72;0.57;;;;;;;;;;6189304;23;19997;-78
2023/03/11 05:52:59;;;;;;;0.85;0.50;;;;;;;;;;6190144;23;20512;-78
2023/03/11 05:55:25;;;;;;;3.72;0.77;;;;;;;;;;6189031;23;20012;-78
2023/03/11 05:57:51;;;;;;;1.95;0.50;;;;;;;;;;6189054;23;20400;-78
2023/03/11 06:00:19;;;;;;;2.15;0.65;;;;;;;;;;6191564;23;20001;-78
2023/03/11 06:02:45;;;;;;;1.02;0.43;;;;;;;;;;6195510;23;20382;-79
2023/03/11 06:05:11;;;;;;;2.35;0.57;;;;;;;;;;6198651;23;20129;-79
2023/03/11 06:07:37;;;;;;;2.67;0.60;;;;;;;;;;6198103;23;20005;-79
2023/03/11 06:10:04;;;;;;;1.83;0.57;;;;;;;;;;6199052;23;20009;-79
2023/03/11 06:12:30;;;;;;;0.60;0.60;;;;;;;;;;6199363;23;20057;-79
2023/03/11 06:14:56;;;;;;;3.95;0.50;;;;;;;;;;6197104;23;19997;-78
2023/03/11 06:17:22;;;;;;;2.70;0.40;;;;;;;;;;6195727;23;20016;-79
2023/03/11 06:19:48;;;;;;;3.72;0.52;;;;;;;;;;6195735;23;20001;-79
2023/03/11 06:22:14;;;;;;;0.73;0.60;;;;;;;;;;6197445;23;20001;-79
2023/03/11 06:24:40;;;;;;;2.78;0.50;;;;;;;;;;6197036;23;20012;-78
2023/03/11 06:27:18;;;;;;;1.98;0.60;;;;;;;;;;6193760;23;20005;-77
2023/03/11 06:29:44;;;;;;;2.38;0.50;;;;;;;;;;6192117;23;20056;-78
2023/03/11 06:32:10;;;;;;;1.48;0.57;;;;;;;;;;6190652;23;19997;-78
2023/03/11 06:34:36;;;;;;;3.13;0.55;;;;;;;;;;6188473;23;20021;-78
2023/03/11 06:37:02;;;;;;;8.05;2.40;;;;;;;;;;6189660;23;20423;-78
2023/03/11 06:39:28;;;;;;;3.67;1.73;;;;;;;;;;6190923;23;20001;-78
2023/03/11 06:41:54;;;;;;;7.38;1.73;;;;;;;;;;6189696;23;19997;-78
2023/03/11 06:44:20;;;;;;;2.58;1.90;;;;;;;;;;6188468;23;20013;-77
2023/03/11 06:46:46;;;;;;;2.45;1.90;;;;;;;;;;6188602;23;20060;-77
2023/03/11 06:49:12;;;;;;;6.35;1.90;;;;;;;;;;6190738;23;20013;-78
2023/03/11 06:51:38;;;;;;;2.60;1.27;;;;;;;;;;6194805;23;20068;-78
2023/03/11 06:54:04;;;;;;;4.03;0.70;;;;;;;;;;6192850;23;20009;-78
2023/03/11 06:56:30;;;;;;;3.90;1.65;;;;;;;;;;6194728;23;19997;-78
2023/03/11 06:58:56;;;;;;;23.75;8.93;;;;;;;;;;6197776;23;20047;-78
2023/03/11 07:01:23;;;;;;;27.83;10.95;;;;;;;;;;6200902;23;20591;-78
2023/03/11 07:03:50;;;;;;;14.88;6.40;;;;;;;;;;6198199;23;20013;-78
2023/03/11 07:06:23;;;;;;;9.57;4.15;;;;;;;;;;6199300;23;20003;-78
2023/03/11 07:08:55;;;;;;;7.97;2.40;;;;;;;;;;6198918;23;20005;-78
2023/03/11 07:11:24;;;;;;;3.08;1.38;;;;;;;;;;6198830;23;20001;-78
2023/03/11 07:13:51;;;;;;;5.45;1.23;;;;;;;;;;6198140;23;20028;-78
2023/03/11 07:16:19;;;;;;;8.32;1.15;;;;;;;;;;6194437;23;20027;-78
2023/03/11 07:18:46;;;;;;;2.20;1.15;;;;;;;;;;6191778;23;20036;-78
2023/03/11 07:21:14;;;;;;;3.92;1.20;;;;;;;;;;6189342;23;20072;-78
2023/03/11 07:23:40;;;;;;;7.10;1.40;;;;;;;;;;6187779;23;20009;-78
2023/03/11 07:26:08;;;;;;;2.40;1.20;;;;;;;;;;6160552;23;20503;-77
2023/03/11 07:28:34;;;;;;;4.25;1.05;;;;;;;;;;6186645;23;20008;-77
2023/03/11 07:31:00;;;;;;;3.53;1.05;;;;;;;;;;6188979;23;19997;-78
2023/03/11 07:33:26;;;;;;;2.05;1.55;;;;;;;;;;6188956;23;20416;-78
2023/03/11 07:35:52;;;;;;;2.25;1.27;;;;;;;;;;6189873;23;20001;-78
2023/03/11 07:38:18;;;;;;;3.90;1.60;;;;;;;;;;6187120;23;19993;-78
2023/03/11 07:40:44;;;;;;;3.70;1.45;;;;;;;;;;6160815;23;20005;-78
2023/03/11 07:43:10;;;;;;;2.33;1.15;;;;;;;;;;6189451;23;20009;-78
2023/03/11 07:45:36;;;;;;;2.42;1.02;;;;;;;;;;6196225;23;20020;-78
2023/03/11 07:48:02;;;;;;;4.60;1.20;;;;;;;;;;6199155;23;20021;-78
2023/03/11 07:50:28;;;;;;;5.38;1.10;;;;;;;;;;6199562;23;20004;-78
2023/03/11 07:52:54;;;;;;;2.47;1.20;;;;;;;;;;6199173;23;20001;-78
2023/03/11 07:55:22;;;;;;;8.13;1.92;;;;;;;;;;6197398;23;20062;-78
2023/03/11 07:57:48;;;;;;;3.97;1.70;;;;;;;;;;6198428;23;20012;-79
2023/03/11 08:00:14;;;;;;;2.72;1.80;;;;;;;;;;6198783;23;20355;-79
2023/03/11 08:02:40;;;;;;;4.03;1.98;;;;;;;;;;6198960;23;20313;-79
2023/03/11 08:05:06;;;;;;;3.55;1.70;;;;;;;;;;6197891;23;20001;-79
2023/03/11 08:07:32;;;;;;;3.38;1.20;;;;;;;;;;6197491;23;20037;-79
2023/03/11 08:09:58;;;;;;;4.95;1.10;;;;;;;;;;6197388;23;20439;-79
2023/03/11 08:12:24;;;;;;;3.75;1.52;;;;;;;;;;6195329;23;20008;-79
2023/03/11 08:14:50;;;;;;;3.72;0.80;;;;;;;;;;6194195;23;20005;-79
2023/03/11 08:17:16;;;;;;;5.85;1.10;;;;;;;;;;6193666;23;20001;-79
2023/03/11 08:19:42;;;;;;;3.38;0.80;;;;;;;;;;6192444;23;20059;-79
2023/03/11 08:22:08;;;;;;;4.03;0.80;;;;;;;;;;6191762;23;20001;-79
2023/03/11 08:24:35;;;;;;;4.90;0.85;;;;;;;;;;6194098;23;20016;-79
2023/03/11 08:27:00;;;;;;;3.00;0.77;;;;;;;;;;6193158;23;19997;-79
2023/03/11 08:29:26;;;;;;;3.97;1.00;;;;;;;;;;6192716;23;20435;-78
2023/03/11 08:31:52;;;;;;;2.75;0.88;;;;;;;;;;6189829;23;20011;-78
2023/03/11 08:34:20;;;;;;;4.22;0.70;;;;;;;;;;6189782;23;20327;-78
2023/03/11 08:36:46;;;;;;;2.90;0.80;;;;;;;;;;6190120;23;19997;-78
2023/03/11 08:39:12;;;;;;;1.85;0.70;;;;;;;;;;6192627;23;20005;-78
2023/03/11 08:41:38;;;;;;;1.65;0.80;;;;;;;;;;6193224;23;20080;-78
2023/03/11 08:44:04;;;;;;;5.70;0.85;;;;;;;;;;6192965;23;20005;-78
2023/03/11 08:46:35;;;;;;;3.03;0.95;;;;;;;;;;6193266;23;20020;-78
2023/03/11 08:49:01;;;;;;;5.38;1.00;;;;;;;;;;6192517;23;20005;-79
2023/03/11 08:51:28;;;;;;;2.47;1.10;;;;;;;;;;6192327;23;20055;-79
2023/03/11 08:53:54;;;;;;;2.88;0.90;;;;;;;;;;6192058;23;19997;-79
2023/03/11 08:56:20;;;;;;;4.32;0.90;;;;;;;;;;6191650;23;20000;-79
2023/03/11 08:58:46;;;;;;;3.50;1.15;;;;;;;;;;6190389;23;20420;-79
2023/03/11 09:01:12;;;;;;;4.40;1.10;;;;;;;;;;6189101;23;20015;-79
2023/03/11 09:03:39;;;;;;;5.80;1.15;;;;;;;;;;6188996;23;20016;-79
2023/03/11 09:06:07;;;;;;;4.25;1.08;;;;;;;;;;6188985;23;20004;-79
2023/03/11 09:08:33;;;;;;;2.80;1.20;;;;;;;;;;6188441;23;20005;-79
2023/03/11 09:10:59;;;;;;;2.63;1.20;;;;;;;;;;6162255;23;20060;-79
2023/03/11 09:13:26;;;;;;;2.65;0.95;;;;;;;;;;6188540;23;20416;-79
2023/03/11 09:15:52;;;;;;;1.48;1.00;;;;;;;;;;6188207;23;20390;-79
2023/03/11 09:18:19;;;;;;;2.92;1.13;;;;;;;;;;6188407;23;20020;-79
2023/03/11 09:20:45;;;;;;;4.50;0.95;;;;;;;;;;6188532;23;20051;-79
2023/03/11 09:23:12;;;;;;;3.53;0.95;;;;;;;;;;6189198;23;20075;-79
2023/03/11 09:25:39;;;;;;;3.90;0.88;;;;;;;;;;6190777;23;20004;-79
2023/03/11 09:28:05;;;;;;;2.92;1.00;;;;;;;;;;6190275;23;19993;-79
2023/03/11 09:30:31;;;;;;;4.60;0.70;;;;;;;;;;6190070;23;20436;-79
2023/03/11 09:32:57;;;;;;;3.15;0.68;;;;;;;;;;6189790;23;20490;-79
2023/03/11 09:35:23;;;;;;;5.22;1.67;;;;;;;;;;6190290;23;20001;-79
2023/03/11 09:37:49;;;;;;;2.78;0.95;;;;;;;;;;6191647;23;20301;-79
2023/03/11 09:40:17;;;;;;;4.03;1.10;;;;;;;;;;6188597;23;20001;-79
2023/03/11 09:42:58;;;;;;;3.38;0.50;;;;;;;;;;6164702;23;20009;-79
2023/03/11 09:45:27;;;;;;;1.45;0.70;;;;;;;;;;6191861;23;20016;-79
2023/03/11 09:47:54;;;;;;;4.07;0.90;;;;;;;;;;6191122;23;20076;-79
2023/03/11 09:50:29;;;;;;;1.73;0.50;;;;;;;;;;6193453;23;19993;-80
2023/03/11 09:53:02;;;;;;;3.15;1.17;;;;;;;;;;6190957;23;20450;-79
2023/03/11 09:55:41;;;;;;;3.65;0.82;;;;;;;;;;6190173;23;20459;-80
2023/03/11 09:58:30;;;;;;;2.10;0.60;;;;;;;;;;6189352;23;20088;-79
2023/03/11 10:00:56;;;;;;;2.33;0.32;;;;;;;;;;6173746;23;20008;-79
2023/03/11 10:03:35;;;;;;;1.70;0.50;;;;;;;;;;6192717;23;20352;-80
2023/03/11 10:06:13;;;;;;;3.22;0.70;;;;;;;;;;6188830;23;20474;-79
2023/03/11 10:08:44;;;;;;;2.58;0.50;;;;;;;;;;6190510;23;20628;-80
2023/03/11 10:11:15;;;;;;;2.60;0.65;;;;;;;;;;6188451;23;20408;-79
2023/03/11 10:14:03;;;;;;;1.52;0.60;;;;;;;;;;6186926;23;20064;-79
2023/03/11 10:16:37;;;;;;;3.15;0.70;;;;;;;;;;6188224;23;19993;-79
2023/03/11 10:19:05;;;;;;;3.78;0.52;;;;;;;;;;6187588;23;20005;-79
2023/03/11 10:21:45;;;;;;;4.53;0.70;;;;;;;;;;6187325;23;20009;-79
2023/03/11 10:24:27;;;;;;;2.53;0.52;;;;;;;;;;6187397;23;20072;-79
2023/03/11 10:27:06;;;;;;;4.82;0.85;;;;;;;;;;6187305;23;20028;-80
2023/03/11 10:29:40;;;;;;;4.15;0.57;;;;;;;;;;6187112;23;20023;-80
2023/03/11 10:32:13;;;;;;;3.88;0.70;;;;;;;;;;6186421;23;20316;-79
2023/03/11 10:34:43;;;;;;;2.15;0.70;;;;;;;;;;6186930;23;20320;-79
2023/03/11 10:37:32;;;;;;;3.28;0.85;;;;;;;;;;6187092;23;20427;-79
2023/03/11 10:40:04;;;;;;;2.20;0.88;;;;;;;;;;6171186;23;20001;-79
2023/03/11 10:42:32;;;;;;;3.03;1.00;;;;;;;;;;6187873;23;20028;-79
2023/03/11 10:45:00;;;;;;;3.00;0.70;;;;;;;;;;6187760;23;20013;-79
2023/03/11 10:47:26;;;;;;;3.70;0.80;;;;;;;;;;6188954;23;20072;-80
2023/03/11 10:49:52;;;;;;;2.67;0.90;;;;;;;;;;6188612;23;20005;-79
2023/03/11 10:52:20;;;;;;;3.60;0.60;;;;;;;;;;6188405;23;20001;-79
2023/03/11 10:54:47;;;;;;;6.32;0.90;;;;;;;;;;6189030;23;20004;-79
2023/03/11 10:57:24;;;;;;;2.00;0.70;;;;;;;;;;6188541;23;20495;-79
2023/03/11 10:59:54;;;;;;;1.88;1.10;;;;;;;;;;6188556;23;20008;-79
2023/03/11 11:02:24;;;;;;;2.03;0.82;;;;;;;;;;6190069;23;20328;-79
2023/03/11 11:05:02;;;;;;;4.82;0.93;;;;;;;;;;6190525;23;20010;-79
2023/03/11 11:07:30;;;;;;;2.00;0.55;;;;;;;;;;6188435;23;20055;-79
2023/03/11 11:10:11;;;;;;;2.15;0.60;;;;;;;;;;6188261;23;20009;-79
2023/03/11 11:12:38;;;;;;;2.15;0.50;;;;;;;;;;6190630;23;20003;-79
2023/03/11 11:15:04;;;;;;;1.45;0.40;;;;;;;;;;6192078;23;20065;-79
2023/03/11 11:17:32;;;;;;;1.75;0.50;;;;;;;;;;6192081;23;19997;-79
2023/03/11 11:19:58;;;;;;;4.53;1.05;;;;;;;;;;6161826;23;20005;-79
2023/03/11 11:22:25;;;;;;;1.60;0.60;;;;;;;;;;6187694;23;20560;-79
2023/03/11 11:24:52;;;;;;;1.65;0.73;;;;;;;;;;6190028;23;20012;-79
2023/03/11 11:27:20;;;;;;;1.55;0.50;;;;;;;;;;6189443;23;20040;-79
2023/03/11 11:29:47;;;;;;;2.85;0.40;;;;;;;;;;6189479;23;20005;-79
2023/03/11 11:32:17;;;;;;;2.45;0.80;;;;;;;;;;6190533;23;20012;-79
2023/03/11 11:34:53;;;;;;;2.22;0.40;;;;;;;;;;6190066;23;20028;-79
2023/03/11 11:37:19;;;;;;;0.93;0.50;;;;;;;;;;6189363;23;20023;-79
2023/03/11 11:39:54;;;;;;;5.60;0.50;;;;;;;;;;6189926;23;20008;-79
2023/03/11 11:42:22;;;;;;;2.33;0.50;;;;;;;;;;6187873;23;20008;-79
2023/03/11 11:44:49;;;;;;;1.90;0.47;;;;;;;;;;6187637;23;20008;-79
2023/03/11 11:47:18;;;;;;;6.68;1.85;;;;;;;;;;6188474;23;19997;-79
2023/03/11 11:49:54;;;;;;;3.17;1.15;;;;;;;;;;6189056;23;20004;-79
2023/03/11 11:52:23;;;;;;;4.25;0.80;;;;;;;;;;6187392;23;20004;-79
2023/03/11 11:54:51;;;;;;;3.88;0.85;;;;;;;;;;6189704;23;20035;-79
2023/03/11 11:57:19;;;;;;;2.08;0.60;;;;;;;;;;6186188;23;20063;-79
2023/03/11 11:59:45;;;;;;;3.85;0.50;;;;;;;;;;6187426;23;20005;-79
2023/03/11 12:02:38;;;;;;;2.42;0.60;;;;;;;;;;6187993;23;19998;-79
2023/03/11 12:05:23;;;;;;;3.03;0.50;;;;;;;;;;6187538;23;20005;-79
2023/03/11 12:07:49;;;;;;;1.83;0.40;;;;;;;;;;6187118;23;19997;-79
2023/03/11 12:10:38;;;;;;;3.42;1.13;;;;;;;;;;6188904;23;20009;-79
2023/03/11 12:13:13;;;;;;;2.53;0.50;;;;;;;;;;6171781;23;20063;-79
2023/03/11 12:15:58;;;;;;;1.65;0.50;;;;;;;;;;6188142;23;20455;-79
2023/03/11 12:18:44;;;;;;;4.43;0.70;;;;;;;;;;6188554;23;20021;-80
2023/03/11 12:21:20;;;;;;;1.80;0.50;;;;;;;;;;6191687;23;20084;-79
2023/03/11 12:23:50;;;;;;;1.90;0.40;;;;;;;;;;6190236;23;20059;-79
2023/03/11 12:26:24;;;;;;;2.28;0.70;;;;;;;;;;6190310;23;20031;-79
2023/03/11 12:28:50;;;;;;;3.60;1.02;;;;;;;;;;6190425;23;20001;-80
2023/03/11 12:31:16;;;;;;;2.45;0.93;;;;;;;;;;6190501;23;20001;-79
2023/03/11 12:33:44;;;;;;;4.65;1.10;;;;;;;;;;6163270;23;20001;-79
2023/03/11 12:36:39;;;;;;;2.20;0.70;;;;;;;;;;6191029;23;19993;-79
2023/03/11 12:39:07;;;;;;;3.42;0.60;;;;;;;;;;6164598;23;20063;-80
2023/03/11 12:41:37;;;;;;;1.95;0.40;;;;;;;;;;6189574;23;20064;-79
2023/03/11 12:44:04;;;;;;;3.40;0.63;;;;;;;;;;6188825;23;20013;-78
2023/03/11 12:46:49;;;;;;;3.95;0.60;;;;;;;;;;6189585;23;20001;-79
2023/03/11 12:49:22;;;;;;;5.43;0.60;;;;;;;;;;6192020;23;20051;-79
2023/03/11 12:52:01;;;;;;;2.53;0.68;;;;;;;;;;6190850;23;20012;-79
2023/03/11 12:54:28;;;;;;;2.78;0.60;;;;;;;;;;6189331;23;20012;-79
2023/03/11 12:57:02;;;;;;;2.88;0.30;;;;;;;;;;6162762;23;20305;-78
2023/03/11 12:59:39;;;;;;;2.17;0.40;;;;;;;;;;6187279;23;20029;-78
2023/03/11 13:02:29;;;;;;;2.22;0.50;;;;;;;;;;6188530;23;20032;-77
2023/03/11 13:05:14;;;;;;;2.30;0.80;;;;;;;;;;6187210;23;20005;-77
2023/03/11 13:07:42;;;;;;;3.38;1.10;;;;;;;;;;6187496;23;20001;-78
2023/03/11 13:10:11;;;;;;;3.63;0.70;;;;;;;;;;6188262;23;20328;-77
2023/03/11 13:12:39;;;;;;;1.73;0.60;;;;;;;;;;6161283;23;20092;-78
2023/03/11 13:15:20;;;;;;;1.45;0.50;;;;;;;;;;6187471;23;20329;-78
2023/03/11 13:17:58;;;;;;;1.38;0.32;;;;;;;;;;6187661;23;19997;-78
2023/03/11 13:20:42;;;;;;;0.88;0.38;;;;;;;;;;6162163;23;20009;-78
2023/03/11 13:23:14;;;;;;;2.63;0.35;;;;;;;;;;6188190;23;20543;-78
2023/03/11 13:25:41;;;;;;;3.22;0.52;;;;;;;;;;6189518;23;20096;-78
2023/03/11 13:28:26;;;;;;;0.55;0.20;;;;;;;;;;6189824;23;20008;-78
2023/03/11 13:31:10;;;;;;;1.17;0.30;;;;;;;;;;6188730;23;19997;-78
2023/03/11 13:33:45;;;;;;;3.60;0.57;;;;;;;;;;6187721;23;20008;-78
2023/03/11 13:36:26;;;;;;;2.10;0.38;;;;;;;;;;6161169;23;20060;-78
2023/03/11 13:39:10;;;;;;;1.55;0.38;;;;;;;;;;6188264;23;20423;-78
2023/03/11 13:41:37;;;;;;;1.52;0.30;;;;;;;;;;6194026;23;20005;-79
2023/03/11 13:44:11;;;;;;;0.63;0.25;;;;;;;;;;6189610;23;20088;-78
2023/03/11 13:46:39;;;;;;;1.85;0.32;;;;;;;;;;6189924;23;20039;-78
2023/03/11 13:49:20;;;;;;;2.03;0.40;;;;;;;;;;6188375;23;20051;-78
2023/03/11 13:51:45;;;;;;;;;;;;;;;;;;6188920;23;20100;-78
2023/03/11 13:54:23;;;;;;;0.75;0.20;;;;;;;;;;6189234;23;19972;-78
2023/03/11 13:56:52;;;;;;;4.05;0.57;;;;;;;;;;6188469;23;20001;-78
2023/03/11 13:59:21;;;;;;;3.83;0.57;;;;;;;;;;6188088;23;20017;-78
2023/03/11 14:01:48;;;;;;;2.67;0.45;;;;;;;;;;6162268;23;20017;-79
2023/03/11 14:04:16;;;;;;;1.95;0.30;;;;;;;;;;6190549;23;20041;-79
2023/03/11 14:06:42;;;;;;;2.00;0.38;;;;;;;;;;6191069;23;19997;-78
2023/03/11 14:09:17;;;;;;;2.67;0.38;;;;;;;;;;6189753;23;20003;-79
2023/03/11 14:11:46;;;;;;;3.08;0.50;;;;;;;;;;6190154;23;20009;-79
2023/03/11 14:14:46;;;;;;;0.98;0.30;;;;;;;;;;6193336;23;20005;-79
2023/03/11 14:17:14;;;;;;;2.00;0.30;;;;;;;;;;6126357;23;20008;-79
2023/03/11 14:19:40;;;;;;;1.85;0.43;;;;;;;;;;6193237;23;20080;-79
2023/03/11 14:22:09;;;;;;;1.10;0.30;;;;;;;;;;6193906;23;20076;-78
2023/03/11 14:24:37;;;;;;;3.97;0.50;;;;;;;;;;6192814;23;20071;-79
2023/03/11 14:27:14;;;;;;;2.17;0.38;;;;;;;;;;6194332;23;20420;-79
2023/03/11 14:29:42;;;;;;;1.63;0.32;;;;;;;;;;6191948;23;20319;-79
2023/03/11 14:32:20;;;;;;;1.98;0.40;;;;;;;;;;6191410;23;20004;-79
2023/03/11 14:34:46;;;;;;;0.85;0.40;;;;;;;;;;6190809;23;20075;-79
2023/03/11 14:37:31;;;;;;;0.55;0.30;;;;;;;;;;6191200;23;19997;-79
2023/03/11 14:39:57;;;;;;;1.10;0.40;;;;;;;;;;6191830;23;20068;-79
2023/03/11 14:42:26;;;;;;;2.25;0.50;;;;;;;;;;6193786;23;20084;-80
2023/03/11 14:44:52;;;;;;;0.57;0.30;;;;;;;;;;6193607;23;20009;-80
2023/03/11 14:47:21;;;;;;;0.93;0.30;;;;;;;;;;6165891;23;20497;-79
2023/03/11 14:49:48;;;;;;;0.40;0.30;;;;;;;;;;6165131;23;20008;-79
2023/03/11 14:52:18;;;;;;;1.10;0.47;;;;;;;;;;6164367;23;20096;-79
2023/03/11 14:54:44;;;;;;;1.88;0.40;;;;;;;;;;6164765;23;20005;-80